sensor_id;sensor_type;location;lat;lon;timestamp;pressure;altitude;pressure_sealevel;temperature;humidity
9139;BME280;4604;48.616;9.548;2023-03-19T00:01:28;96597.06;;;9.21;85.70
9139;BME280;4604;48.616;9.548;2023-03-19T00:03:54;96590.84;;;9.22;85.74
9139;BME280;4604;48.616;9.548;2023-03-19T00:06:21;96594.00;;;9.26;85.81
9139;BME280;4604;48.616;9.548;2023-03-19T00:08:51;96597.75;;;9.23;86.34
9139;BME280;4604;48.616;9.548;2023-03-19T00:11:18;96591.78;;;9.21;86.30
9139;BME280;4604;48.616;9.548;2023-03-19T00:13:46;96599.16;;;9.17;86.41
9139;BME280;4604;48.616;9.548;2023-03-19T00:16:13;96599.28;;;9.16;86.70
9139;BME280;4604;48.616;9.548;2023-03-19T00:18:40;96597.47;;;9.16;86.88
9139;BME280;4604;48.616;9.548;2023-03-19T00:21:06;96601.38;;;9.22;87.18
9139;BME280;4604;48.616;9.548;2023-03-19T00:23:34;96603.72;;;9.25;86.83
9139;BME280;4604;48.616;9.548;2023-03-19T00:26:01;96601.06;;;9.25;86.77
9139;BME280;4604;48.616;9.548;2023-03-19T00:28:28;96594.84;;;9.26;86.78
9139;BME280;4604;48.616;9.548;2023-03-19T00:30:57;96594.41;;;9.31;86.66
9139;BME280;4604;48.616;9.548;2023-03-19T00:33:23;96594.41;;;9.31;86.68
9139;BME280;4604;48.616;9.548;2023-03-19T00:35:51;96605.94;;;9.30;86.75
9139;BME280;4604;48.616;9.548;2023-03-19T00:38:18;96609.81;;;9.35;86.67
9139;BME280;4604;48.616;9.548;2023-03-19T00:40:44;96608.56;;;9.39;86.38
9139;BME280;4604;48.616;9.548;2023-03-19T00:43:12;96606.06;;;9.38;86.24
9139;BME280;4604;48.616;9.548;2023-03-19T00:45:39;96609.25;;;9.41;86.13
9139;BME280;4604;48.616;9.548;2023-03-19T00:48:07;96613.53;;;9.42;86.07
9139;BME280;4604;48.616;9.548;2023-03-19T00:50:34;96613.41;;;9.44;86.20
9139;BME280;4604;48.616;9.548;2023-03-19T00:53:01;96608.41;;;9.41;86.23
9139;BME280;4604;48.616;9.548;2023-03-19T00:55:27;96615.06;;;9.45;86.52
9139;BME280;4604;48.616;9.548;2023-03-19T00:57:54;96609.50;;;9.48;86.84
9139;BME280;4604;48.616;9.548;2023-03-19T01:00:21;96613.25;;;9.46;87.31
9139;BME280;4604;48.616;9.548;2023-03-19T01:02:48;96616.03;;;9.44;87.49
9139;BME280;4604;48.616;9.548;2023-03-19T01:05:17;96617.28;;;9.40;87.56
9139;BME280;4604;48.616;9.548;2023-03-19T01:07:43;96619.09;;;9.39;87.67
9139;BME280;4604;48.616;9.548;2023-03-19T01:10:10;96605.09;;;9.29;87.71
9139;BME280;4604;48.616;9.548;2023-03-19T01:12:37;96618.41;;;9.37;88.09
9139;BME280;4604;48.616;9.548;2023-03-19T01:15:05;96610.50;;;9.37;88.35
9139;BME280;4604;48.616;9.548;2023-03-19T01:17:33;96619.91;;;9.40;88.16
9139;BME280;4604;48.616;9.548;2023-03-19T01:19:59;96618.53;;;9.36;88.03
9139;BME280;4604;48.616;9.548;2023-03-19T01:22:28;96626.59;;;9.44;88.19
9139;BME280;4604;48.616;9.548;2023-03-19T01:24:54;96632.56;;;9.46;88.09
9139;BME280;4604;48.616;9.548;2023-03-19T01:27:21;96626.28;;;9.47;88.09
9139;BME280;4604;48.616;9.548;2023-03-19T01:29:47;96609.50;;;9.38;88.40
9139;BME280;4604;48.616;9.548;2023-03-19T01:32:14;96623.78;;;9.46;88.57
9139;BME280;4604;48.616;9.548;2023-03-19T01:34:41;96628.81;;;9.49;89.15
9139;BME280;4604;48.616;9.548;2023-03-19T01:37:08;96622.13;;;9.54;89.34
9139;BME280;4604;48.616;9.548;2023-03-19T01:39:36;96609.25;;;9.41;89.68
9139;BME280;4604;48.616;9.548;2023-03-19T01:42:03;96637.78;;;9.56;90.07
9139;BME280;4604;48.616;9.548;2023-03-19T01:44:31;96624.19;;;9.51;90.49
9139;BME280;4604;48.616;9.548;2023-03-19T01:47:00;96641.13;;;9.58;91.10
9139;BME280;4604;48.616;9.548;2023-03-19T01:49:29;96643.63;;;9.59;90.96
9139;BME280;4604;48.616;9.548;2023-03-19T01:51:58;96654.03;;;9.61;91.42
9139;BME280;4604;48.616;9.548;2023-03-19T01:54:27;96653.03;;;9.62;90.52
9139;BME280;4604;48.616;9.548;2023-03-19T01:56:59;96661.50;;;9.56;91.06
9139;BME280;4604;48.616;9.548;2023-03-19T01:59:30;96669.56;;;9.54;91.38
9139;BME280;4604;48.616;9.548;2023-03-19T02:02:02;96666.75;;;9.56;91.20
9139;BME280;4604;48.616;9.548;2023-03-19T02:04:33;96668.84;;;9.72;89.57
9139;BME280;4604;48.616;9.548;2023-03-19T02:07:02;96656.91;;;9.58;89.57
9139;BME280;4604;48.616;9.548;2023-03-19T02:09:29;96673.13;;;9.63;90.08
9139;BME280;4604;48.616;9.548;2023-03-19T02:11:58;96674.13;;;9.72;89.20
9139;BME280;4604;48.616;9.548;2023-03-19T02:14:26;96673.84;;;9.65;88.89
9139;BME280;4604;48.616;9.548;2023-03-19T02:16:53;96668.97;;;9.70;88.81
9139;BME280;4604;48.616;9.548;2023-03-19T02:19:25;96677.88;;;9.69;88.97
9139;BME280;4604;48.616;9.548;2023-03-19T02:21:54;96681.47;;;9.68;89.38
9139;BME280;4604;48.616;9.548;2023-03-19T02:24:24;96677.72;;;9.71;90.17
9139;BME280;4604;48.616;9.548;2023-03-19T02:26:53;96675.09;;;9.80;90.13
9139;BME280;4604;48.616;9.548;2023-03-19T02:29:21;96681.31;;;9.70;90.49
9139;BME280;4604;48.616;9.548;2023-03-19T02:31:48;96650.81;;;9.57;90.48
9139;BME280;4604;48.616;9.548;2023-03-19T02:34:33;96677.16;;;9.67;91.23
9139;BME280;4604;48.616;9.548;2023-03-19T02:37:04;96680.22;;;9.72;89.89
9139;BME280;4604;48.616;9.548;2023-03-19T02:39:35;96686.88;;;9.76;88.81
9139;BME280;4604;48.616;9.548;2023-03-19T02:42:05;96687.56;;;9.78;89.09
9139;BME280;4604;48.616;9.548;2023-03-19T02:44:33;96687.69;;;9.77;89.40
9139;BME280;4604;48.616;9.548;2023-03-19T02:46:59;96656.66;;;9.61;89.83
9139;BME280;4604;48.616;9.548;2023-03-19T02:49:26;96694.66;;;9.78;91.06
9139;BME280;4604;48.616;9.548;2023-03-19T02:51:53;96699.63;;;9.81;91.90
9139;BME280;4604;48.616;9.548;2023-03-19T02:54:20;96697.53;;;9.75;93.24
9139;BME280;4604;48.616;9.548;2023-03-19T02:56:47;96695.91;;;9.74;93.90
9139;BME280;4604;48.616;9.548;2023-03-19T02:59:16;96687.16;;;9.73;94.28
9139;BME280;4604;48.616;9.548;2023-03-19T03:01:42;96686.75;;;9.78;94.48
9139;BME280;4604;48.616;9.548;2023-03-19T03:04:09;96697.94;;;9.80;94.48
9139;BME280;4604;48.616;9.548;2023-03-19T03:06:36;96704.75;;;9.73;94.90
9139;BME280;4604;48.616;9.548;2023-03-19T03:09:03;96709.47;;;9.79;94.93
9139;BME280;4604;48.616;9.548;2023-03-19T03:11:29;96711.13;;;9.90;94.75
9139;BME280;4604;48.616;9.548;2023-03-19T03:13:56;96718.22;;;9.79;94.11
9139;BME280;4604;48.616;9.548;2023-03-19T03:16:24;96718.22;;;9.79;95.22
9139;BME280;4604;48.616;9.548;2023-03-19T03:18:51;96726.69;;;9.83;96.87
9139;BME280;4604;48.616;9.548;2023-03-19T03:21:18;96722.94;;;9.85;98.88
9139;BME280;4604;48.616;9.548;2023-03-19T03:23:45;96725.16;;;9.90;100.00
9139;BME280;4604;48.616;9.548;2023-03-19T03:26:12;96732.78;;;9.83;100.00
9139;BME280;4604;48.616;9.548;2023-03-19T03:28:39;96726.69;;;9.73;100.00
9139;BME280;4604;48.616;9.548;2023-03-19T03:31:06;96724.31;;;9.80;100.00
9139;BME280;4604;48.616;9.548;2023-03-19T03:33:34;96734.19;;;9.78;100.00
9139;BME280;4604;48.616;9.548;2023-03-19T03:36:02;96732.09;;;9.72;100.00
9139;BME280;4604;48.616;9.548;2023-03-19T03:38:28;96747.19;;;9.79;100.00
9139;BME280;4604;48.616;9.548;2023-03-19T03:40:57;96745.28;;;9.81;100.00
9139;BME280;4604;48.616;9.548;2023-03-19T03:43:24;96740.69;;;9.74;100.00
9139;BME280;4604;48.616;9.548;2023-03-19T03:45:51;96738.47;;;9.79;100.00
9139;BME280;4604;48.616;9.548;2023-03-19T03:48:18;96724.31;;;9.70;100.00
9139;BME280;4604;48.616;9.548;2023-03-19T03:50:47;96738.19;;;9.72;100.00
9139;BME280;4604;48.616;9.548;2023-03-19T03:53:14;96734.44;;;9.75;100.00
9139;BME280;4604;48.616;9.548;2023-03-19T03:55:42;96737.22;;;9.83;100.00
9139;BME280;4604;48.616;9.548;2023-03-19T03:58:09;96728.75;;;9.79;100.00
9139;BME280;4604;48.616;9.548;2023-03-19T04:00:37;96729.16;;;9.84;100.00
9139;BME280;4604;48.616;9.548;2023-03-19T04:03:04;96721.69;;;9.80;100.00
9139;BME280;4604;48.616;9.548;2023-03-19T04:05:30;96727.22;;;9.86;100.00
9139;BME280;4604;48.616;9.548;2023-03-19T04:07:59;96727.34;;;9.85;100.00
9139;BME280;4604;48.616;9.548;2023-03-19T04:10:25;96729.56;;;9.90;100.00
9139;BME280;4604;48.616;9.548;2023-03-19T04:12:52;96725.56;;;9.85;100.00
9139;BME280;4604;48.616;9.548;2023-03-19T04:15:19;96726.28;;;9.88;100.00
9139;BME280;4604;48.616;9.548;2023-03-19T04:17:46;96728.91;;;9.88;100.00
9139;BME280;4604;48.616;9.548;2023-03-19T04:20:12;96731.09;;;9.82;100.00
9139;BME280;4604;48.616;9.548;2023-03-19T04:22:42;96717.38;;;9.79;100.00
9139;BME280;4604;48.616;9.548;2023-03-19T04:25:10;96717.78;;;9.84;100.00
9139;BME280;4604;48.616;9.548;2023-03-19T04:27:37;96713.09;;;9.88;100.00
9139;BME280;4604;48.616;9.548;2023-03-19T04:30:04;96720.16;;;9.87;100.00
9139;BME280;4604;48.616;9.548;2023-03-19T04:32:31;96714.19;;;9.85;100.00
9139;BME280;4604;48.616;9.548;2023-03-19T04:34:59;96718.09;;;9.81;100.00
9139;BME280;4604;48.616;9.548;2023-03-19T04:37:26;96712.81;;;9.81;100.00
9139;BME280;4604;48.616;9.548;2023-03-19T04:39:53;96718.78;;;9.83;100.00
9139;BME280;4604;48.616;9.548;2023-03-19T04:42:21;96709.34;;;9.80;100.00
9139;BME280;4604;48.616;9.548;2023-03-19T04:44:49;96715.72;;;9.88;100.00
9139;BME280;4604;48.616;9.548;2023-03-19T04:47:15;96715.56;;;9.79;100.00
9139;BME280;4604;48.616;9.548;2023-03-19T04:49:42;96727.81;;;9.80;100.00
9139;BME280;4604;48.616;9.548;2023-03-19T04:52:09;96730.44;;;9.80;100.00
9139;BME280;4604;48.616;9.548;2023-03-19T04:54:36;96721.41;;;9.73;100.00
9139;BME280;4604;48.616;9.548;2023-03-19T04:57:02;96723.06;;;9.84;100.00
9139;BME280;4604;48.616;9.548;2023-03-19T04:59:30;96731.25;;;9.81;100.00
9139;BME280;4604;48.616;9.548;2023-03-19T05:01:57;96730.16;;;9.74;100.00
9139;BME280;4604;48.616;9.548;2023-03-19T05:04:24;96738.47;;;9.79;100.00
9139;BME280;4604;48.616;9.548;2023-03-19T05:06:51;96733.19;;;9.69;100.00
9139;BME280;4604;48.616;9.548;2023-03-19T05:09:18;96739.16;;;9.71;100.00
9139;BME280;4604;48.616;9.548;2023-03-19T05:11:45;96744.72;;;9.68;100.00
9139;BME280;4604;48.616;9.548;2023-03-19T05:14:11;96742.22;;;9.67;100.00
9139;BME280;4604;48.616;9.548;2023-03-19T05:16:39;96736.81;;;9.58;100.00
9139;BME280;4604;48.616;9.548;2023-03-19T05:19:06;96759.41;;;9.71;100.00
9139;BME280;4604;48.616;9.548;2023-03-19T05:21:33;96755.69;;;9.73;100.00
9139;BME280;4604;48.616;9.548;2023-03-19T05:23:59;96757.22;;;9.76;100.00
9139;BME280;4604;48.616;9.548;2023-03-19T05:26:26;96758.84;;;9.77;100.00
9139;BME280;4604;48.616;9.548;2023-03-19T05:28:53;96764.00;;;9.78;100.00
9139;BME280;4604;48.616;9.548;2023-03-19T05:31:19;96760.25;;;9.81;100.00
9139;BME280;4604;48.616;9.548;2023-03-19T05:33:47;96767.19;;;9.82;100.00
9139;BME280;4604;48.616;9.548;2023-03-19T05:36:14;96772.31;;;9.83;100.00
9139;BME280;4604;48.616;9.548;2023-03-19T05:38:41;96760.38;;;9.89;100.00
9139;BME280;4604;48.616;9.548;2023-03-19T05:41:07;96763.72;;;9.81;100.00
9139;BME280;4604;48.616;9.548;2023-03-19T05:43:34;96777.59;;;9.83;100.00
9139;BME280;4604;48.616;9.548;2023-03-19T05:46:01;96782.59;;;9.86;100.00
9139;BME280;4604;48.616;9.548;2023-03-19T05:48:28;96782.47;;;9.88;100.00
9139;BME280;4604;48.616;9.548;2023-03-19T05:50:56;96781.34;;;9.91;100.00
9139;BME280;4604;48.616;9.548;2023-03-19T05:53:23;96781.06;;;9.94;100.00
9139;BME280;4604;48.616;9.548;2023-03-19T05:55:50;96786.47;;;9.92;100.00
9139;BME280;4604;48.616;9.548;2023-03-19T05:58:17;96794.25;;;9.94;100.00
9139;BME280;4604;48.616;9.548;2023-03-19T06:00:43;96788.13;;;9.93;100.00
9139;BME280;4604;48.616;9.548;2023-03-19T06:03:10;96789.09;;;9.92;100.00
9139;BME280;4604;48.616;9.548;2023-03-19T06:05:37;96793.81;;;9.98;100.00
9139;BME280;4604;48.616;9.548;2023-03-19T06:08:06;96794.53;;;10.00;100.00
9139;BME280;4604;48.616;9.548;2023-03-19T06:10:33;96804.09;;;10.01;100.00
9139;BME280;4604;48.616;9.548;2023-03-19T06:13:00;96808.41;;;10.02;100.00
9139;BME280;4604;48.616;9.548;2023-03-19T06:15:27;96804.78;;;10.03;100.00
9139;BME280;4604;48.616;9.548;2023-03-19T06:17:53;96799.50;;;10.03;100.00
9139;BME280;4604;48.616;9.548;2023-03-19T06:20:20;96807.13;;;10.06;100.00
9139;BME280;4604;48.616;9.548;2023-03-19T06:22:47;96778.84;;;9.89;100.00
9139;BME280;4604;48.616;9.548;2023-03-19T06:25:15;96800.50;;;10.12;100.00
9139;BME280;4604;48.616;9.548;2023-03-19T06:27:42;96812.16;;;10.19;100.00
9139;BME280;4604;48.616;9.548;2023-03-19T06:30:09;96807.72;;;10.20;100.00
9139;BME280;4604;48.616;9.548;2023-03-19T06:32:36;96809.66;;;10.18;100.00
9139;BME280;4604;48.616;9.548;2023-03-19T06:35:04;96812.56;;;10.15;100.00
9139;BME280;4604;48.616;9.548;2023-03-19T06:37:31;96804.50;;;10.06;100.00
9139;BME280;4604;48.616;9.548;2023-03-19T06:39:58;96809.78;;;10.16;100.00
9139;BME280;4604;48.616;9.548;2023-03-19T06:42:26;96811.72;;;10.14;100.00
9139;BME280;4604;48.616;9.548;2023-03-19T06:44:52;96799.63;;;10.12;100.00
9139;BME280;4604;48.616;9.548;2023-03-19T06:47:19;96810.06;;;10.23;100.00
9139;BME280;4604;48.616;9.548;2023-03-19T06:49:46;96793.13;;;10.16;100.00
9139;BME280;4604;48.616;9.548;2023-03-19T06:52:12;96806.31;;;10.25;100.00
9139;BME280;4604;48.616;9.548;2023-03-19T06:54:39;96807.84;;;10.38;100.00
9139;BME280;4604;48.616;9.548;2023-03-19T06:57:06;96784.50;;;10.23;100.00
9139;BME280;4604;48.616;9.548;2023-03-19T06:59:34;96798.97;;;10.39;100.00
9139;BME280;4604;48.616;9.548;2023-03-19T07:02:01;96811.28;;;10.48;100.00
9139;BME280;4604;48.616;9.548;2023-03-19T07:04:28;96808.81;;;10.56;100.00
9139;BME280;4604;48.616;9.548;2023-03-19T07:06:55;96809.06;;;10.53;100.00
9139;BME280;4604;48.616;9.548;2023-03-19T07:09:22;96811.44;;;10.56;100.00
9139;BME280;4604;48.616;9.548;2023-03-19T07:11:49;96818.25;;;10.59;100.00
9139;BME280;4604;48.616;9.548;2023-03-19T07:14:15;96821.41;;;10.62;100.00
9139;BME280;4604;48.616;9.548;2023-03-19T07:16:44;96818.91;;;10.70;100.00
9139;BME280;4604;48.616;9.548;2023-03-19T07:19:11;96827.38;;;10.74;100.00
9139;BME280;4604;48.616;9.548;2023-03-19T07:21:38;96825.00;;;10.81;99.82
9139;BME280;4604;48.616;9.548;2023-03-19T07:24:05;96828.16;;;10.84;99.64
9139;BME280;4604;48.616;9.548;2023-03-19T07:26:31;96828.03;;;10.86;99.11
9139;BME280;4604;48.616;9.548;2023-03-19T07:28:58;96832.50;;;10.85;98.95
9139;BME280;4604;48.616;9.548;2023-03-19T07:31:25;96837.47;;;10.88;98.54
9139;BME280;4604;48.616;9.548;2023-03-19T07:33:53;96836.50;;;10.89;98.61
9139;BME280;4604;48.616;9.548;2023-03-19T07:36:20;96832.06;;;10.90;98.23
9139;BME280;4604;48.616;9.548;2023-03-19T07:38:47;96836.34;;;10.91;98.74
9139;BME280;4604;48.616;9.548;2023-03-19T07:41:13;96819.28;;;10.85;98.48
9139;BME280;4604;48.616;9.548;2023-03-19T07:43:40;96835.06;;;11.05;98.60
9139;BME280;4604;48.616;9.548;2023-03-19T07:46:07;96830.31;;;11.08;97.91
9139;BME280;4604;48.616;9.548;2023-03-19T07:48:33;96827.78;;;11.17;97.46
9139;BME280;4604;48.616;9.548;2023-03-19T07:51:02;96830.94;;;11.30;96.09
9139;BME280;4604;48.616;9.548;2023-03-19T07:53:28;96830.63;;;11.33;95.80
9139;BME280;4604;48.616;9.548;2023-03-19T07:55:55;96834.63;;;11.47;93.81
9139;BME280;4604;48.616;9.548;2023-03-19T07:58:22;96835.00;;;11.52;92.89
9139;BME280;4604;48.616;9.548;2023-03-19T08:00:50;96829.53;;;11.63;90.83
9139;BME280;4604;48.616;9.548;2023-03-19T08:03:17;96838.97;;;11.66;90.70
9139;BME280;4604;48.616;9.548;2023-03-19T08:05:43;96832.38;;;11.70;89.05
9139;BME280;4604;48.616;9.548;2023-03-19T08:08:12;96834.13;;;11.79;87.66
9139;BME280;4604;48.616;9.548;2023-03-19T08:10:39;96831.88;;;11.84;87.49
9139;BME280;4604;48.616;9.548;2023-03-19T08:13:06;96826.88;;;11.91;86.81
9139;BME280;4604;48.616;9.548;2023-03-19T08:15:34;96831.72;;;11.95;86.75
9139;BME280;4604;48.616;9.548;2023-03-19T08:18:03;96836.25;;;12.03;85.86
9139;BME280;4604;48.616;9.548;2023-03-19T08:20:30;96834.59;;;12.20;82.75
9139;BME280;4604;48.616;9.548;2023-03-19T08:22:57;96835.41;;;12.20;82.17
9139;BME280;4604;48.616;9.548;2023-03-19T08:25:25;96834.81;;;12.27;82.22
9139;BME280;4604;48.616;9.548;2023-03-19T08:27:56;96837.16;;;12.30;82.62
9139;BME280;4604;48.616;9.548;2023-03-19T08:30:23;96847.78;;;12.38;82.62
9139;BME280;4604;48.616;9.548;2023-03-19T08:32:49;96835.63;;;12.45;82.72
9139;BME280;4604;48.616;9.548;2023-03-19T08:35:18;96826.84;;;12.45;81.44
9139;BME280;4604;48.616;9.548;2023-03-19T08:37:44;96838.91;;;12.65;80.67
9139;BME280;4604;48.616;9.548;2023-03-19T08:40:12;96843.59;;;12.71;80.62
9139;BME280;4604;48.616;9.548;2023-03-19T08:42:40;96850.09;;;12.77;80.00
9139;BME280;4604;48.616;9.548;2023-03-19T08:45:08;96848.16;;;12.87;79.70
9139;BME280;4604;48.616;9.548;2023-03-19T08:47:35;96840.91;;;12.89;80.23
9139;BME280;4604;48.616;9.548;2023-03-19T08:50:02;96833.50;;;12.93;79.02
9139;BME280;4604;48.616;9.548;2023-03-19T08:52:29;96841.94;;;12.96;78.31
9139;BME280;4604;48.616;9.548;2023-03-19T08:54:55;96833.03;;;12.97;76.73
9139;BME280;4604;48.616;9.548;2023-03-19T08:57:22;96841.69;;;13.07;76.31
9139;BME280;4604;48.616;9.548;2023-03-19T08:59:51;96850.97;;;13.12;75.84
9139;BME280;4604;48.616;9.548;2023-03-19T09:02:18;96848.69;;;13.17;75.21
9139;BME280;4604;48.616;9.548;2023-03-19T09:04:45;96850.84;;;13.21;74.73
9139;BME280;4604;48.616;9.548;2023-03-19T09:07:12;96851.53;;;13.23;75.50
9139;BME280;4604;48.616;9.548;2023-03-19T09:09:40;96852.78;;;13.37;75.36
9139;BME280;4604;48.616;9.548;2023-03-19T09:12:09;96847.06;;;13.50;74.43
9139;BME280;4604;48.616;9.548;2023-03-19T09:14:36;96848.41;;;13.62;72.52
9139;BME280;4604;48.616;9.548;2023-03-19T09:17:04;96855.41;;;13.72;72.45
9139;BME280;4604;48.616;9.548;2023-03-19T09:19:31;96855.31;;;13.89;71.38
9139;BME280;4604;48.616;9.548;2023-03-19T09:21:58;96856.16;;;13.98;71.34
9139;BME280;4604;48.616;9.548;2023-03-19T09:24:25;96852.38;;;14.09;70.54
9139;BME280;4604;48.616;9.548;2023-03-19T09:26:52;96849.06;;;14.23;67.33
9139;BME280;4604;48.616;9.548;2023-03-19T09:29:19;96841.94;;;14.40;65.89
9139;BME280;4604;48.616;9.548;2023-03-19T09:31:45;96842.00;;;14.73;63.34
9139;BME280;4604;48.616;9.548;2023-03-19T09:34:13;96844.63;;;14.89;61.52
9139;BME280;4604;48.616;9.548;2023-03-19T09:36:40;96840.78;;;15.08;61.06
9139;BME280;4604;48.616;9.548;2023-03-19T09:39:07;96838.03;;;15.33;60.13
9139;BME280;4604;48.616;9.548;2023-03-19T09:41:39;96831.50;;;15.52;58.77
9139;BME280;4604;48.616;9.548;2023-03-19T09:44:12;96844.19;;;15.81;58.00
9139;BME280;4604;48.616;9.548;2023-03-19T09:46:42;96844.59;;;16.01;57.19
9139;BME280;4604;48.616;9.548;2023-03-19T09:49:21;96834.72;;;16.10;57.31
9139;BME280;4604;48.616;9.548;2023-03-19T09:51:51;96817.97;;;16.01;55.82
9139;BME280;4604;48.616;9.548;2023-03-19T09:54:25;96840.16;;;16.16;56.60
9139;BME280;4604;48.616;9.548;2023-03-19T09:56:52;96838.97;;;16.19;55.05
9139;BME280;4604;48.616;9.548;2023-03-19T09:59:22;96840.91;;;16.02;55.02
9139;BME280;4604;48.616;9.548;2023-03-19T10:01:52;96835.59;;;16.02;56.29
9139;BME280;4604;48.616;9.548;2023-03-19T10:04:43;96836.03;;;15.82;57.27
9139;BME280;4604;48.616;9.548;2023-03-19T10:07:32;96835.69;;;15.86;57.23
9139;BME280;4604;48.616;9.548;2023-03-19T10:13:10;96833.13;;;16.23;56.38
9139;BME280;4604;48.616;9.548;2023-03-19T10:15:44;96831.47;;;16.45;55.92
9139;BME280;4604;48.616;9.548;2023-03-19T10:18:15;96818.22;;;16.37;56.35
9139;BME280;4604;48.616;9.548;2023-03-19T10:20:47;96824.19;;;16.39;55.46
9139;BME280;4604;48.616;9.548;2023-03-19T10:23:40;96826.81;;;16.24;54.33
9139;BME280;4604;48.616;9.548;2023-03-19T10:26:11;96821.41;;;16.10;55.26
9139;BME280;4604;48.616;9.548;2023-03-19T10:28:41;96817.09;;;16.09;54.88
9139;BME280;4604;48.616;9.548;2023-03-19T10:31:25;96821.00;;;15.98;54.63
9139;BME280;4604;48.616;9.548;2023-03-19T10:34:01;96815.66;;;15.98;55.02
9139;BME280;4604;48.616;9.548;2023-03-19T10:36:33;96814.72;;;16.14;53.57
9139;BME280;4604;48.616;9.548;2023-03-19T10:39:01;96811.22;;;16.13;53.61
9139;BME280;4604;48.616;9.548;2023-03-19T10:41:40;96812.25;;;16.12;53.30
9139;BME280;4604;48.616;9.548;2023-03-19T10:44:16;96811.94;;;16.30;52.50
9139;BME280;4604;48.616;9.548;2023-03-19T10:46:46;96809.69;;;16.42;52.45
9139;BME280;4604;48.616;9.548;2023-03-19T10:49:14;96793.75;;;16.57;52.25
9139;BME280;4604;48.616;9.548;2023-03-19T10:51:44;96797.19;;;16.65;51.82
9139;BME280;4604;48.616;9.548;2023-03-19T10:54:19;96805.31;;;16.87;51.60
9139;BME280;4604;48.616;9.548;2023-03-19T10:56:47;96804.88;;;16.98;52.22
9139;BME280;4604;48.616;9.548;2023-03-19T10:59:21;96797.91;;;16.97;51.06
9139;BME280;4604;48.616;9.548;2023-03-19T11:01:48;96801.50;;;17.19;50.52
9139;BME280;4604;48.616;9.548;2023-03-19T11:04:18;96791.81;;;17.33;48.94
9139;BME280;4604;48.616;9.548;2023-03-19T11:06:49;96783.56;;;17.28;49.09
9139;BME280;4604;48.616;9.548;2023-03-19T11:09:23;96792.22;;;17.15;50.10
9139;BME280;4604;48.616;9.548;2023-03-19T11:11:57;96781.25;;;16.95;50.89
9139;BME280;4604;48.616;9.548;2023-03-19T11:14:31;96791.44;;;17.06;51.09
9139;BME280;4604;48.616;9.548;2023-03-19T11:17:03;96786.31;;;17.20;50.41
9139;BME280;4604;48.616;9.548;2023-03-19T11:19:32;96772.16;;;17.19;49.80
9139;BME280;4604;48.616;9.548;2023-03-19T11:22:13;96769.22;;;17.29;49.50
9139;BME280;4604;48.616;9.548;2023-03-19T11:24:47;96781.63;;;17.37;49.48
9139;BME280;4604;48.616;9.548;2023-03-19T11:27:15;96780.88;;;17.43;49.24
9139;BME280;4604;48.616;9.548;2023-03-19T11:29:43;96794.97;;;17.37;47.77
9139;BME280;4604;48.616;9.548;2023-03-19T11:32:22;96787.03;;;17.14;45.52
9139;BME280;4604;48.616;9.548;2023-03-19T11:34:55;96782.47;;;17.07;46.04
9139;BME280;4604;48.616;9.548;2023-03-19T11:37:32;96773.91;;;17.12;48.09
9139;BME280;4604;48.616;9.548;2023-03-19T11:40:11;96781.44;;;17.23;48.23
9139;BME280;4604;48.616;9.548;2023-03-19T11:42:52;96777.22;;;17.29;47.17
9139;BME280;4604;48.616;9.548;2023-03-19T11:45:29;96779.13;;;17.20;46.03
9139;BME280;4604;48.616;9.548;2023-03-19T11:48:10;96765.53;;;17.15;45.35
9139;BME280;4604;48.616;9.548;2023-03-19T11:50:47;96765.81;;;17.20;46.41
9139;BME280;4604;48.616;9.548;2023-03-19T11:53:22;96768.19;;;16.85;44.29
9139;BME280;4604;48.616;9.548;2023-03-19T11:55:57;96761.81;;;16.34;45.97
9139;BME280;4604;48.616;9.548;2023-03-19T11:58:51;96767.03;;;16.27;46.77
9139;BME280;4604;48.616;9.548;2023-03-19T12:01:32;96768.50;;;16.30;46.77
9139;BME280;4604;48.616;9.548;2023-03-19T12:07:08;96763.78;;;16.17;47.20
9139;BME280;4604;48.616;9.548;2023-03-19T12:09:47;96750.00;;;16.36;47.58
9139;BME280;4604;48.616;9.548;2023-03-19T12:12:21;96749.75;;;16.61;48.52
9139;BME280;4604;48.616;9.548;2023-03-19T12:15:01;96752.44;;;16.61;46.20
9139;BME280;4604;48.616;9.548;2023-03-19T12:17:39;96742.09;;;16.43;46.13
9139;BME280;4604;48.616;9.548;2023-03-19T12:20:20;96742.84;;;16.52;46.67
9139;BME280;4604;48.616;9.548;2023-03-19T12:23:06;96743.38;;;16.47;46.92
9139;BME280;4604;48.616;9.548;2023-03-19T12:25:51;96732.06;;;16.30;47.14
9139;BME280;4604;48.616;9.548;2023-03-19T12:28:29;96748.94;;;16.22;48.05
9139;BME280;4604;48.616;9.548;2023-03-19T12:31:09;96746.38;;;16.06;47.34
9139;BME280;4604;48.616;9.548;2023-03-19T12:33:43;96749.63;;;16.16;48.07
9139;BME280;4604;48.616;9.548;2023-03-19T12:36:17;96749.91;;;16.21;48.83
9139;BME280;4604;48.616;9.548;2023-03-19T12:38:48;96743.41;;;16.24;50.63
9139;BME280;4604;48.616;9.548;2023-03-19T12:41:21;96756.44;;;16.19;51.60
9139;BME280;4604;48.616;9.548;2023-03-19T12:43:53;96745.44;;;16.22;54.59
9139;BME280;4604;48.616;9.548;2023-03-19T12:46:25;96750.78;;;16.22;57.11
9139;BME280;4604;48.616;9.548;2023-03-19T12:48:57;96748.19;;;16.29;59.48
9139;BME280;4604;48.616;9.548;2023-03-19T12:51:31;96736.47;;;16.38;58.61
9139;BME280;4604;48.616;9.548;2023-03-19T12:54:03;96735.75;;;16.44;58.35
9139;BME280;4604;48.616;9.548;2023-03-19T12:56:36;96734.97;;;16.58;59.07
9139;BME280;4604;48.616;9.548;2023-03-19T12:59:12;96730.47;;;16.59;61.17
9139;BME280;4604;48.616;9.548;2023-03-19T13:01:45;96727.59;;;16.60;64.96
9139;BME280;4604;48.616;9.548;2023-03-19T13:04:17;96709.13;;;16.44;66.29
9139;BME280;4604;48.616;9.548;2023-03-19T13:06:50;96730.72;;;16.49;66.21
9139;BME280;4604;48.616;9.548;2023-03-19T13:09:26;96724.63;;;16.40;66.47
9139;BME280;4604;48.616;9.548;2023-03-19T13:12:00;96724.44;;;16.27;68.83
9139;BME280;4604;48.616;9.548;2023-03-19T13:14:35;96720.66;;;15.98;69.65
9139;BME280;4604;48.616;9.548;2023-03-19T13:17:12;96726.22;;;15.89;68.73
9139;BME280;4604;48.616;9.548;2023-03-19T13:19:46;96714.63;;;15.81;69.12
9139;BME280;4604;48.616;9.548;2023-03-19T13:22:19;96722.38;;;15.91;70.38
9139;BME280;4604;48.616;9.548;2023-03-19T13:24:48;96693.81;;;15.85;71.18
9139;BME280;4604;48.616;9.548;2023-03-19T13:27:20;96714.63;;;16.04;73.23
9139;BME280;4604;48.616;9.548;2023-03-19T13:29:57;96725.44;;;16.03;73.94
9139;BME280;4604;48.616;9.548;2023-03-19T13:32:35;96715.56;;;16.12;74.63
9139;BME280;4604;48.616;9.548;2023-03-19T13:35:24;96710.63;;;16.23;76.29
9139;BME280;4604;48.616;9.548;2023-03-19T13:37:55;96717.38;;;16.34;75.32
9139;BME280;4604;48.616;9.548;2023-03-19T13:40:42;96718.38;;;16.33;71.87
9139;BME280;4604;48.616;9.548;2023-03-19T13:43:39;96716.19;;;16.37;68.83